Bayside, New York
Current Conditions -  °F | °C
As of 6:51 PM on Sunday 25 Jan 2015 (Local Time) from KLGA Reporting Station
Broken Clouds Broken Clouds  
Wind Chill: 26°   Ceiling: 25000
Heat Index: 35°   Visibility: 10mi
Dew Point:   Wind: 14mph
Humidity: 34%   Direction: 320°NW
Pressure: 29.91"   Gusts: NA
Location:  40.77°N, 73.78°W
Report Text: KLGA 252351Z 32012KT 10SM FEW035 SCT080 SCT170 BKN250 02/M13 A2991 RMK AO2 SLP128 ACSL SW-W 4/001 T00171128 10056 20017 53033 $
Loading
Personal Weather Stations






























Interactive Weather Map New forecast layout! Learn more

10-Day Weather Forecast

Advertisements
Track Severe Weather on mobile